Ailano, Italy

10:45 PM CEST on June 24, 2017 (GMT +0200)
Alife | | Change Station

Elev 591 ft 41.35 °N, 14.33 °E | Updated 5 minutes ago

Clear
Clear
74.5 °F
Feels Like 75 °F
N
0.0
Wind Variable Wind from ESE
Gusts 0.0 mph

Today
High -- | Low -- °F
--% Chance of Precip.
Yesterday
High -- | Low -- °F
Precip. -- in
Pressure 30.01 in
Visibility -9999.0 miles
Clouds
Heat Index 75 °F
Dew Point 67 °F
Humidity 77%
Rainfall 0.00 in
Snow Depth Not available.
5:30 AM 8:40 PM
New Moon, 1% visible
METAR LIRM 241955Z 21003KT CAVOK 25/24 Q1016 RMK SKC VIS MIN 9999 WIND THR06 21003KT BLU
Pressure 30.01 in
Visibility -9999.0 miles
Clouds
Heat Index 75 °F
Dew Point 67 °F
Humidity 77%
Rainfall 0.00 in
Snow Depth Not available.
5:30 AM 8:40 PM
New Moon, 1% visible
METAR LIRM 241955Z 21003KT CAVOK 25/24 Q1016 RMK SKC VIS MIN 9999 WIND THR06 21003KT BLU

Get Severe Weather Alerts

Thanks for signing up!

Be on the lookout for a verification email in your inbox.

You'll start receiving the daily forecast at 6 AM.

×

10-Day Weather Forecast

×

Almanac

Astronomy

Jun. 24, 2017 Rise Set
Actual Time
Civil Twilight
Nautical Twilight
Astronomical Twilight
Moon
Length of Visible Light
Length of Day
Tomorrow will be .
, % of the Moon is Illuminated

Today's Extremes

Country Highs Country Lows

Community

WunderPhotos

Category 6

Welcome to Category 6. This is the collective home for Weather Underground's featured writeups by Dr. Jeff Masters (right), Bob Henson (left), Chris Burt, and other regular contributors.

Nearby

Air Quality

  Air Quality AQ Index Pollutant
Not available.

Snow Depth

Station Depth Elevation

Earthquake Activity

City Distance Mag. Time & Date
Minimum magnitude displayed is 2.5.

Coastal Water Temperatures

Place Temperature

Stations

Nearby Weather Stations

Station Location Temp. Windchill Dew Point Humidity Wind Precip. Elev Updated Type